createdAt,value
2018-08-06T00:00:07.481Z,15.00
2018-08-06T00:02:35.018Z,15.00
2018-08-06T00:05:02.580Z,15.20
2018-08-06T00:07:30.097Z,16.03
2018-08-06T00:09:57.701Z,14.57
2018-08-06T00:12:25.239Z,14.80
2018-08-06T00:14:52.792Z,14.77
2018-08-06T00:17:20.475Z,15.17
2018-08-06T00:19:48.034Z,15.03
2018-08-06T00:22:15.544Z,14.27
2018-08-06T00:24:43.176Z,13.50
2018-08-06T00:27:10.800Z,15.70
2018-08-06T00:29:38.369Z,14.37
2018-08-06T00:32:06.067Z,15.50
2018-08-06T00:34:33.607Z,13.80
2018-08-06T00:37:01.148Z,15.30
2018-08-06T00:39:28.787Z,14.33
2018-08-06T00:41:56.357Z,14.73
2018-08-06T00:44:23.864Z,14.40
2018-08-06T00:46:51.455Z,14.60
2018-08-06T00:49:19.038Z,14.17
2018-08-06T00:51:46.572Z,16.40
2018-08-06T00:54:14.130Z,15.10
2018-08-06T00:56:41.644Z,14.90
2018-08-06T00:59:09.179Z,15.13
2018-08-06T01:01:36.742Z,15.13
2018-08-06T01:04:04.293Z,15.67
2018-08-06T01:06:31.824Z,15.93
2018-08-06T01:08:59.440Z,14.07
2018-08-06T01:11:26.981Z,14.10
2018-08-06T01:13:54.560Z,15.07
2018-08-06T01:16:22.118Z,14.53
2018-08-06T01:18:49.661Z,14.60
2018-08-06T01:21:17.205Z,13.90
2018-08-06T01:23:44.779Z,15.07
2018-08-06T01:26:12.385Z,13.53
2018-08-06T01:28:39.938Z,14.47
2018-08-06T01:31:07.545Z,15.03
2018-08-06T01:33:35.123Z,15.10
2018-08-06T01:36:02.701Z,14.50
2018-08-06T01:38:30.272Z,14.80
2018-08-06T01:40:57.848Z,15.00
2018-08-06T01:43:25.409Z,15.00
2018-08-06T01:45:52.963Z,14.93
2018-08-06T01:48:20.492Z,14.57
2018-08-06T01:50:48.041Z,15.43
2018-08-06T01:53:15.639Z,14.50
2018-08-06T01:55:43.185Z,14.80
2018-08-06T01:58:10.765Z,15.10
2018-08-06T02:00:38.437Z,15.57
2018-08-06T02:03:06.060Z,13.80
2018-08-06T02:05:33.654Z,15.40
2018-08-06T02:08:01.274Z,13.90
2018-08-06T02:10:28.811Z,14.43
2018-08-06T02:12:56.418Z,13.63
2018-08-06T02:15:23.968Z,14.30
2018-08-06T02:17:51.859Z,15.97
2018-08-06T02:20:19.520Z,16.17
2018-08-06T02:22:47.761Z,14.50
2018-08-06T02:25:15.530Z,14.23
2018-08-06T02:27:43.497Z,14.17
2018-08-06T02:30:14.128Z,16.10
2018-08-06T02:32:42.031Z,14.40
2018-08-06T02:35:11.710Z,14.53
2018-08-06T02:37:39.711Z,15.47
2018-08-06T02:40:08.196Z,15.80
2018-08-06T02:42:35.828Z,16.03
2018-08-06T02:45:03.501Z,16.03
2018-08-06T02:47:31.112Z,15.73
2018-08-06T02:49:58.721Z,15.90
2018-08-06T02:52:26.403Z,16.53
2018-08-06T02:54:54.242Z,14.67
2018-08-06T02:57:21.909Z,15.10
2018-08-06T02:59:49.476Z,15.90
2018-08-06T03:02:17.065Z,15.10
2018-08-06T03:04:44.617Z,14.00
2018-08-06T03:07:12.170Z,14.53
2018-08-06T03:09:39.781Z,16.20
2018-08-06T03:12:07.392Z,17.10
2018-08-06T03:14:34.970Z,16.90
2018-08-06T03:17:02.567Z,16.43
2018-08-06T03:19:30.636Z,16.60
2018-08-06T03:21:58.200Z,15.13
2018-08-06T03:24:25.749Z,16.63
2018-08-06T03:26:53.337Z,16.57
2018-08-06T03:29:20.903Z,15.83
2018-08-06T03:31:48.493Z,15.83
2018-08-06T03:34:16.160Z,14.77
2018-08-06T03:36:43.767Z,15.80
2018-08-06T03:39:11.614Z,15.73
2018-08-06T03:41:39.203Z,14.30
2018-08-06T03:44:07.298Z,15.83
2018-08-06T03:46:35.153Z,17.47
2018-08-06T03:49:02.714Z,16.23
2018-08-06T03:51:30.298Z,15.97
2018-08-06T03:53:57.944Z,16.20
2018-08-06T03:56:25.543Z,17.47
2018-08-06T03:58:53.491Z,17.80
2018-08-06T04:01:21.060Z,17.30
2018-08-06T04:03:48.887Z,16.70
2018-08-06T04:06:16.893Z,16.43
2018-08-06T04:08:44.455Z,15.80
2018-08-06T04:11:12.249Z,16.47
2018-08-06T04:13:39.907Z,15.70
2018-08-06T04:16:07.525Z,15.20
2018-08-06T04:18:35.060Z,15.20
2018-08-06T04:21:02.666Z,15.70
2018-08-06T04:23:30.249Z,14.47
2018-08-06T04:25:57.808Z,15.20
2018-08-06T04:28:25.420Z,15.37
2018-08-06T04:30:52.972Z,15.83
2018-08-06T04:33:20.590Z,16.90
2018-08-06T04:35:48.150Z,17.20
2018-08-06T04:38:15.777Z,16.60
2018-08-06T04:40:43.387Z,16.17
2018-08-06T04:43:10.996Z,17.40
2018-08-06T04:45:38.570Z,17.00
2018-08-06T04:48:06.139Z,17.07
2018-08-06T04:50:33.712Z,17.37
2018-08-06T04:53:01.368Z,16.90
2018-08-06T04:55:28.898Z,15.93
2018-08-06T04:57:56.562Z,17.93
2018-08-06T05:00:24.146Z,18.70
2018-08-06T05:02:51.674Z,17.53
2018-08-06T05:05:19.265Z,17.47
2018-08-06T05:07:46.838Z,18.80
2018-08-06T05:10:14.414Z,19.10
2018-08-06T05:12:42.034Z,16.80
2018-08-06T05:15:09.615Z,18.37
2018-08-06T05:17:37.185Z,19.20
2018-08-06T05:20:05.129Z,18.43
2018-08-06T05:22:32.732Z,18.50
2018-08-06T05:25:00.288Z,18.07
2018-08-06T05:27:27.889Z,19.40
2018-08-06T05:29:55.473Z,20.00
2018-08-06T05:32:23.024Z,19.57
2018-08-06T05:34:50.662Z,20.47
2018-08-06T05:37:18.272Z,21.17
2018-08-06T05:39:45.882Z,20.50
2018-08-06T05:42:13.777Z,20.07
2018-08-06T05:44:41.462Z,19.23
2018-08-06T05:47:09.081Z,21.83
2018-08-06T05:49:36.670Z,18.73
2018-08-06T05:52:04.376Z,19.67
2018-08-06T05:54:38.664Z,19.73
2018-08-06T05:57:06.308Z,18.70
2018-08-06T05:59:33.838Z,17.97
2018-08-06T06:02:01.475Z,17.93
2018-08-06T06:04:29.104Z,19.30
2018-08-06T06:06:56.667Z,19.40
2018-08-06T06:09:24.397Z,18.60
2018-08-06T06:11:52.022Z,15.93
2018-08-06T06:14:19.624Z,17.03
2018-08-06T06:16:47.226Z,16.10
2018-08-06T06:19:14.882Z,16.77
2018-08-06T06:21:42.452Z,15.57
2018-08-06T06:24:10.065Z,17.10
2018-08-06T06:26:37.672Z,16.70
2018-08-06T06:29:05.255Z,15.87
2018-08-06T06:31:32.861Z,15.67
2018-08-06T06:34:00.502Z,16.10
2018-08-06T06:36:28.312Z,17.80
2018-08-06T06:38:55.933Z,17.13
2018-08-06T06:41:23.543Z,16.70
2018-08-06T06:43:51.132Z,17.20
2018-08-06T06:46:18.754Z,17.57
2018-08-06T06:48:46.343Z,16.27
2018-08-06T06:51:13.927Z,16.50
2018-08-06T06:53:41.533Z,16.47
2018-08-06T06:56:09.128Z,16.33
2018-08-06T06:58:36.731Z,17.37
2018-08-06T07:01:04.436Z,19.27
2018-08-06T07:03:32.048Z,17.43
2018-08-06T07:05:59.668Z,17.67
2018-08-06T07:08:27.286Z,17.23
2018-08-06T07:10:54.957Z,17.80
2018-08-06T07:13:22.525Z,17.30
2018-08-06T07:15:50.171Z,18.10
2018-08-06T07:18:17.762Z,17.40
2018-08-06T07:20:45.348Z,19.63
2018-08-06T07:23:12.893Z,19.10
2018-08-06T07:25:40.965Z,17.20
2018-08-06T07:28:08.590Z,18.80
2018-08-06T07:30:36.218Z,17.87
2018-08-06T07:33:03.900Z,17.47
2018-08-06T07:35:31.482Z,17.63
2018-08-06T07:37:59.188Z,17.23
2018-08-06T07:40:26.795Z,17.47
2018-08-06T07:42:54.362Z,17.10
2018-08-06T07:45:21.979Z,16.90
2018-08-06T07:47:49.890Z,16.30
2018-08-06T07:50:18.267Z,15.97
2018-08-06T07:52:45.936Z,15.90
2018-08-06T07:55:13.571Z,16.30
2018-08-06T07:57:49.821Z,16.40
2018-08-06T08:00:20.388Z,15.97
2018-08-06T08:02:51.511Z,14.90
2018-08-06T08:05:34.230Z,18.00
2018-08-06T08:08:06.997Z,16.37
2018-08-06T08:10:35.335Z,14.70
2018-08-06T08:13:02.961Z,14.57
2018-08-06T08:15:30.581Z,15.20
2018-08-06T08:17:58.168Z,15.13
2018-08-06T08:20:26.145Z,15.60
2018-08-06T08:22:53.749Z,15.27
2018-08-06T08:25:22.439Z,14.80
2018-08-06T08:27:50.108Z,16.67
2018-08-06T08:30:18.534Z,14.90
2018-08-06T08:32:46.114Z,17.00
2018-08-06T08:35:14.218Z,15.70
2018-08-06T08:37:41.869Z,15.70
2018-08-06T08:40:14.766Z,16.70
2018-08-06T08:42:42.385Z,15.10
2018-08-06T08:45:11.841Z,14.27
2018-08-06T08:47:39.889Z,15.47
2018-08-06T08:50:09.167Z,15.73
2018-08-06T08:52:36.943Z,15.10
2018-08-06T08:55:05.029Z,15.00
2018-08-06T08:57:32.661Z,14.40
2018-08-06T09:00:00.287Z,14.77
2018-08-06T09:02:27.913Z,15.13
2018-08-06T09:04:55.536Z,14.20
2018-08-06T09:07:23.168Z,14.17
2018-08-06T09:09:50.812Z,14.40
2018-08-06T09:12:18.953Z,14.27
2018-08-06T09:14:46.548Z,14.30
2018-08-06T09:17:15.561Z,14.70
2018-08-06T09:20:00.786Z,13.70
2018-08-06T09:22:29.157Z,14.33
2018-08-06T09:24:56.761Z,13.40
2018-08-06T09:27:24.491Z,13.73
2018-08-06T09:29:52.066Z,14.40
2018-08-06T09:32:19.655Z,14.90
2018-08-06T09:34:47.252Z,14.60
2018-08-06T09:37:14.863Z,13.80
2018-08-06T09:39:42.468Z,14.50
2018-08-06T09:42:10.080Z,15.30
2018-08-06T09:44:37.724Z,14.33
2018-08-06T09:47:05.347Z,15.60
2018-08-06T09:49:32.918Z,16.20
2018-08-06T09:52:00.619Z,16.50
2018-08-06T09:54:28.265Z,15.90
2018-08-06T09:56:57.806Z,14.90
2018-08-06T09:59:25.491Z,15.50
2018-08-06T10:01:55.230Z,14.53
2018-08-06T10:04:23.108Z,15.30
2018-08-06T10:06:50.705Z,14.60
2018-08-06T10:09:18.315Z,14.37
2018-08-06T10:11:45.943Z,14.33
2018-08-06T10:14:13.526Z,14.23
2018-08-06T10:16:41.199Z,15.00
2018-08-06T10:19:08.814Z,14.90
2018-08-06T10:21:36.745Z,13.50
2018-08-06T10:24:04.422Z,14.50
2018-08-06T10:26:32.061Z,13.30
2018-08-06T10:28:59.636Z,14.57
2018-08-06T10:31:27.232Z,14.00
2018-08-06T10:33:54.842Z,13.20
2018-08-06T10:36:26.280Z,14.70
2018-08-06T10:38:53.974Z,15.17
2018-08-06T10:41:25.347Z,14.37
2018-08-06T10:43:53.006Z,14.63
2018-08-06T10:46:21.473Z,13.93
2018-08-06T10:48:49.422Z,14.73
2018-08-06T10:51:17.256Z,15.70
2018-08-06T10:53:45.108Z,15.07
2018-08-06T10:56:12.718Z,14.47
2018-08-06T10:58:40.352Z,16.10
2018-08-06T11:01:08.061Z,15.37
2018-08-06T11:03:35.868Z,16.33
2018-08-06T11:06:03.628Z,15.80
2018-08-06T11:08:31.228Z,14.37
2018-08-06T11:10:59.209Z,14.40
2018-08-06T11:13:26.818Z,15.80
2018-08-06T11:15:54.404Z,14.70
2018-08-06T11:18:22.203Z,15.60
2018-08-06T11:20:49.784Z,14.50
2018-08-06T11:23:17.401Z,13.93
2018-08-06T11:25:45.013Z,13.70
2018-08-06T11:28:12.922Z,14.83
2018-08-06T11:30:40.495Z,14.70
2018-08-06T11:33:08.066Z,14.77
2018-08-06T11:35:35.761Z,14.80
2018-08-06T11:38:03.426Z,13.23
2018-08-06T11:40:31.111Z,13.57
2018-08-06T11:42:58.848Z,12.90
2018-08-06T11:45:26.643Z,13.83
2018-08-06T11:47:54.265Z,13.23
2018-08-06T11:50:21.958Z,13.57
2018-08-06T11:52:49.628Z,14.00
2018-08-06T11:55:17.468Z,13.40
2018-08-06T11:57:45.037Z,12.90
2018-08-06T12:00:16.146Z,13.47
2018-08-06T12:02:43.838Z,13.23
2018-08-06T12:05:11.864Z,13.07
2018-08-06T12:07:39.748Z,12.90
2018-08-06T12:10:08.783Z,13.23
2018-08-06T12:12:36.419Z,13.03
2018-08-06T12:15:04.119Z,13.10
2018-08-06T12:17:31.740Z,12.80
2018-08-06T12:19:59.314Z,13.53
2018-08-06T12:22:26.927Z,12.30
2018-08-06T12:24:54.530Z,12.70
2018-08-06T12:27:22.195Z,12.20
2018-08-06T12:29:49.765Z,12.80
2018-08-06T12:32:17.356Z,12.57
2018-08-06T12:34:45.037Z,12.90
2018-08-06T12:37:12.726Z,12.97
2018-08-06T12:39:40.486Z,13.53
2018-08-06T12:42:08.153Z,12.50
2018-08-06T12:44:35.718Z,11.80
2018-08-06T12:47:03.321Z,13.33
2018-08-06T12:49:30.935Z,13.70
2018-08-06T12:51:58.539Z,13.40
2018-08-06T12:54:26.140Z,12.47
2018-08-06T12:56:53.771Z,12.53
2018-08-06T12:59:21.365Z,13.20
2018-08-06T13:01:49.062Z,12.10
2018-08-06T13:04:16.637Z,12.70
2018-08-06T13:06:44.188Z,12.73
2018-08-06T13:09:11.788Z,12.37
2018-08-06T13:11:39.473Z,12.13
2018-08-06T13:14:07.666Z,12.07
2018-08-06T13:16:35.487Z,12.00
2018-08-06T13:19:03.100Z,12.70
2018-08-06T13:21:31.054Z,12.10
2018-08-06T13:23:58.731Z,12.80
2018-08-06T13:26:26.885Z,11.70
2018-08-06T13:28:54.878Z,11.93
2018-08-06T13:31:22.991Z,13.10
2018-08-06T13:33:50.691Z,12.27
2018-08-06T13:36:18.394Z,12.50
2018-08-06T13:38:46.147Z,12.80
2018-08-06T13:41:13.795Z,11.30
2018-08-06T13:43:41.504Z,10.70
2018-08-06T13:46:18.892Z,11.50
2018-08-06T13:48:55.175Z,12.07
2018-08-06T13:51:23.526Z,11.80
2018-08-06T13:53:51.146Z,11.70
2018-08-06T13:56:18.712Z,10.30
2018-08-06T13:58:47.388Z,10.27
2018-08-06T14:01:15.062Z,11.50
2018-08-06T14:03:42.914Z,11.40
2018-08-06T14:06:10.721Z,11.93
2018-08-06T14:08:38.250Z,11.40
2018-08-06T14:11:05.863Z,10.60
2018-08-06T14:13:33.553Z,12.60
2018-08-06T14:16:01.127Z,11.10
2018-08-06T14:18:28.733Z,11.87
2018-08-06T14:20:56.300Z,10.80
2018-08-06T14:23:23.909Z,10.93
2018-08-06T14:25:51.539Z,12.60
2018-08-06T14:28:19.174Z,10.93
2018-08-06T14:30:46.735Z,10.00
2018-08-06T14:33:14.374Z,11.20
2018-08-06T14:35:42.021Z,11.23
2018-08-06T14:38:09.617Z,12.17
2018-08-06T14:40:37.261Z,11.33
2018-08-06T14:43:04.941Z,11.10
2018-08-06T14:45:32.518Z,11.33
2018-08-06T14:48:00.146Z,10.73
2018-08-06T14:50:27.817Z,10.30
2018-08-06T14:52:55.386Z,11.00
2018-08-06T14:55:23.051Z,10.60
2018-08-06T14:57:50.614Z,10.60
2018-08-06T15:00:19.354Z,10.73
2018-08-06T15:02:47.304Z,11.67
2018-08-06T15:05:14.885Z,10.90
2018-08-06T15:07:42.577Z,11.23
2018-08-06T15:10:11.678Z,11.03
2018-08-06T15:12:39.724Z,10.50
2018-08-06T15:15:08.173Z,11.00
2018-08-06T15:17:35.766Z,11.03
2018-08-06T15:20:03.486Z,11.47
2018-08-06T15:22:31.125Z,10.60
2018-08-06T15:24:58.678Z,11.00
2018-08-06T15:27:26.241Z,11.40
2018-08-06T15:29:53.873Z,10.83
2018-08-06T15:32:21.476Z,10.93
2018-08-06T15:34:49.116Z,11.17
2018-08-06T15:37:16.680Z,11.03
2018-08-06T15:39:44.420Z,10.87
2018-08-06T15:42:12.127Z,10.83
2018-08-06T15:44:39.661Z,11.10
2018-08-06T15:47:07.341Z,11.57
2018-08-06T15:49:34.907Z,11.20
2018-08-06T15:52:14.742Z,11.83
2018-08-06T15:54:42.393Z,10.90
2018-08-06T15:57:09.984Z,10.47
2018-08-06T15:59:37.535Z,9.90
2018-08-06T16:02:05.160Z,11.80
2018-08-06T16:04:33.389Z,10.40
2018-08-06T16:07:00.997Z,11.27
2018-08-06T16:09:28.568Z,11.00
2018-08-06T16:11:56.156Z,10.50
2018-08-06T16:14:23.790Z,10.93
2018-08-06T16:16:51.507Z,9.93
2018-08-06T16:19:19.133Z,10.60
2018-08-06T16:21:46.701Z,10.10
2018-08-06T16:24:14.297Z,10.10
2018-08-06T16:26:42.011Z,11.27
2018-08-06T16:29:09.693Z,12.23
2018-08-06T16:31:37.457Z,10.90
2018-08-06T16:34:05.236Z,11.37
2018-08-06T16:36:32.939Z,10.67
2018-08-06T16:39:00.517Z,11.40
2018-08-06T16:41:28.060Z,11.70
2018-08-06T16:43:55.685Z,10.50
2018-08-06T16:46:23.313Z,11.10
2018-08-06T16:48:50.989Z,11.37
2018-08-06T16:51:18.572Z,11.83
2018-08-06T16:53:46.187Z,11.33
2018-08-06T16:56:14.093Z,12.70
2018-08-06T16:58:41.866Z,11.97
2018-08-06T17:01:10.033Z,12.43
2018-08-06T17:03:37.905Z,12.20
2018-08-06T17:06:05.620Z,12.07
2018-08-06T17:08:33.414Z,12.10
2018-08-06T17:11:01.333Z,12.77
2018-08-06T17:13:29.157Z,12.00
2018-08-06T17:15:57.051Z,13.40
2018-08-06T17:18:24.995Z,13.10
2018-08-06T17:20:52.828Z,13.63
2018-08-06T17:23:20.686Z,11.73
2018-08-06T17:25:48.457Z,13.30
2018-08-06T17:28:16.494Z,13.67
2018-08-06T17:30:44.337Z,14.70
2018-08-06T17:33:12.274Z,14.00
2018-08-06T17:35:40.050Z,13.80
2018-08-06T17:38:07.934Z,14.03
2018-08-06T17:40:35.913Z,13.40
2018-08-06T17:43:03.743Z,13.57
2018-08-06T17:45:31.653Z,14.60
2018-08-06T17:47:59.522Z,14.97
2018-08-06T17:50:27.468Z,13.80
2018-08-06T17:52:55.312Z,12.73
2018-08-06T17:55:23.637Z,14.13
2018-08-06T17:57:51.597Z,14.70
2018-08-06T18:00:22.152Z,13.90
2018-08-06T18:02:50.134Z,14.80
2018-08-06T18:05:18.482Z,14.70
2018-08-06T18:07:46.518Z,17.07
2018-08-06T18:10:15.978Z,16.27
2018-08-06T18:12:44.554Z,14.70
2018-08-06T18:15:12.368Z,15.17
2018-08-06T18:17:40.174Z,14.97
2018-08-06T18:20:10.250Z,15.47
2018-08-06T18:22:38.079Z,15.57
2018-08-06T18:25:07.067Z,14.43
2018-08-06T18:27:35.005Z,15.57
2018-08-06T18:30:03.128Z,15.77
2018-08-06T18:32:30.952Z,15.47
2018-08-06T18:34:58.811Z,15.37
2018-08-06T18:37:58.262Z,15.53
2018-08-06T18:40:25.993Z,15.00
2018-08-06T18:42:53.813Z,15.20
2018-08-06T18:45:22.150Z,15.77
2018-08-06T18:47:50.780Z,16.47
2018-08-06T18:50:19.107Z,15.77
2018-08-06T18:52:47.728Z,16.00
2018-08-06T18:55:15.916Z,15.27
2018-08-06T18:57:44.451Z,15.50
2018-08-06T19:00:13.676Z,16.37
2018-08-06T19:02:41.578Z,15.17
2018-08-06T19:05:09.773Z,16.03
2018-08-06T19:07:37.749Z,15.93
2018-08-06T19:10:06.040Z,15.60
2018-08-06T19:12:38.951Z,15.70
2018-08-06T19:15:06.918Z,16.60
2018-08-06T19:17:38.882Z,16.90
2018-08-06T19:20:06.938Z,15.77
2018-08-06T19:22:35.071Z,17.40
2018-08-06T19:25:08.273Z,16.87
2018-08-06T19:27:36.178Z,16.43
2018-08-06T19:30:05.076Z,17.00
2018-08-06T19:32:33.006Z,16.33
2018-08-06T19:35:00.891Z,16.90
2018-08-06T19:37:33.751Z,17.77
2018-08-06T19:40:01.671Z,16.80
2018-08-06T19:42:33.574Z,16.03
2018-08-06T19:45:01.477Z,16.33
2018-08-06T19:47:29.294Z,16.07
2018-08-06T19:50:27.773Z,17.70
2018-08-06T19:52:55.700Z,17.13
2018-08-06T19:55:29.019Z,16.27
2018-08-06T19:57:56.917Z,16.70
2018-08-06T20:00:24.808Z,16.87
2018-08-06T20:02:52.817Z,16.13
2018-08-06T20:05:20.630Z,16.17
2018-08-06T20:07:48.569Z,16.47
2018-08-06T20:10:16.395Z,18.00
2018-08-06T20:12:44.204Z,17.97
2018-08-06T20:15:14.265Z,17.00
2018-08-06T20:17:42.148Z,16.90
2018-08-06T20:20:10.692Z,16.80
2018-08-06T20:22:38.483Z,17.73
2018-08-06T20:25:07.550Z,18.07
2018-08-06T20:27:35.389Z,17.57
2018-08-06T20:30:03.192Z,17.47
2018-08-06T20:32:31.192Z,18.30
2018-08-06T20:34:59.058Z,17.20
2018-08-06T20:37:26.907Z,18.80
2018-08-06T20:39:54.775Z,17.57
2018-08-06T20:42:22.582Z,17.80
2018-08-06T20:44:50.414Z,17.60
2018-08-06T20:47:18.397Z,17.97
2018-08-06T20:49:46.239Z,17.20
2018-08-06T20:52:14.155Z,18.57
2018-08-06T20:54:41.993Z,17.60
2018-08-06T20:57:09.849Z,19.00
2018-08-06T20:59:37.727Z,17.87
2018-08-06T21:02:05.598Z,17.77
2018-08-06T21:04:34.059Z,18.57
2018-08-06T21:07:01.960Z,18.67
2018-08-06T21:09:29.641Z,17.73
2018-08-06T21:11:59.228Z,18.90
2018-08-06T21:14:26.846Z,19.80
2018-08-06T21:16:54.500Z,17.90
2018-08-06T21:19:22.125Z,19.80
2018-08-06T21:21:53.070Z,19.57
2018-08-06T21:24:20.682Z,18.43
2018-08-06T21:26:49.511Z,18.57
2018-08-06T21:29:17.123Z,18.13
2018-08-06T21:31:44.927Z,20.10
2018-08-06T21:34:12.541Z,18.37
2018-08-06T21:36:40.906Z,18.27
2018-08-06T21:39:09.537Z,20.80
2018-08-06T21:41:37.102Z,18.73
2018-08-06T21:44:05.050Z,19.10
2018-08-06T21:46:32.713Z,17.87
2018-08-06T21:49:00.361Z,19.40
2018-08-06T21:51:28.043Z,19.17
2018-08-06T21:53:55.810Z,18.87
2018-08-06T21:56:23.395Z,19.80
2018-08-06T21:58:51.013Z,19.03
2018-08-06T22:01:18.669Z,18.90
2018-08-06T22:03:46.266Z,18.50
2018-08-06T22:06:13.897Z,20.87
2018-08-06T22:08:41.462Z,19.70
2018-08-06T22:11:09.067Z,19.90
2018-08-06T22:13:36.675Z,20.40
2018-08-06T22:16:04.352Z,20.63
2018-08-06T22:18:31.940Z,18.97
2018-08-06T22:20:59.561Z,19.47
2018-08-06T22:23:27.190Z,20.00
2018-08-06T22:25:54.841Z,20.20
2018-08-06T22:28:22.440Z,19.83
2018-08-06T22:30:50.039Z,20.50
2018-08-06T22:33:17.682Z,20.07
2018-08-06T22:35:45.355Z,20.90
2018-08-06T22:38:12.940Z,20.13
2018-08-06T22:40:40.556Z,17.90
2018-08-06T22:43:08.237Z,18.80
2018-08-06T22:45:36.329Z,19.23
2018-08-06T22:48:03.978Z,19.90
2018-08-06T22:50:31.525Z,20.70
2018-08-06T22:52:59.075Z,19.97
2018-08-06T22:55:26.691Z,20.50
2018-08-06T22:57:54.295Z,20.67
2018-08-06T23:00:21.942Z,21.20
2018-08-06T23:02:49.564Z,19.90
2018-08-06T23:05:17.417Z,20.40
2018-08-06T23:07:45.090Z,19.33
2018-08-06T23:10:13.259Z,20.90
2018-08-06T23:12:40.879Z,20.27
2018-08-06T23:15:11.359Z,21.47
2018-08-06T23:17:38.967Z,21.20
2018-08-06T23:20:07.357Z,20.10
2018-08-06T23:22:35.038Z,21.70
2018-08-06T23:25:02.924Z,20.20
2018-08-06T23:27:30.493Z,20.63
2018-08-06T23:29:58.107Z,20.60
2018-08-06T23:32:25.769Z,21.60
2018-08-06T23:34:53.336Z,22.03
2018-08-06T23:37:20.930Z,20.20
2018-08-06T23:39:48.534Z,19.73
2018-08-06T23:42:16.160Z,21.60
2018-08-06T23:44:43.742Z,20.80
2018-08-06T23:47:11.345Z,21.67
2018-08-06T23:49:38.933Z,20.27
2018-08-06T23:52:06.584Z,20.67
2018-08-06T23:54:34.245Z,21.20
2018-08-06T23:57:01.885Z,21.63
2018-08-06T23:59:29.469Z,21.03
